Bodensee (Kressbronn): 7,8°C  -  Teich der Wetterzentrale Bad Schussenried: 7,4°C  
01.12.2020Höhe
ü. NN
ZeitTemperatur (°C)Nieder-
schlag
Luft-
feuchte
Luft-
druck
Wind
StationaktuellMinimumMaximumaktuellMaximum
Aldingen654 m00:01-3,2-3,2 (22:09)-3,2 (15:22)0,0 l/m²91%1024,50,0 km/h (0 Bft) S16,7 km/h (3 Bft) O-SO (02:23)
Allmannsweiler625 m00:00-1,7-1,7 (00:00)-1,7 (00:00)0,0 l/m²94%1023,10,0 km/h (0 Bft) W0,0 km/h (0 Bft) N (00:00)
Allmendingen541 m00:00-1,5-1,5 (08:40)-1,5 (15:05)0,0 l/m²90%1022,519,3 km/h (3 Bft) SW29,0 km/h (5 Bft) SW (21:35)
Altshausen574 m00:00-1,3-1,3 (00:00)-1,3 (00:00)0,0 l/m²88%1021,614,5 km/h (3 Bft) S-SW14,5 km/h (3 Bft) SW (00:00)
Amstetten-Reutti663 m00:00-3,4-3,4 (18:20)-3,4 (15:00)0,0 l/m²95%1022,89,7 km/h (2 Bft) O-SO16,1 km/h (3 Bft) O-SO (19:05)
Amtzell-Grenis677 m00:00-2,3-2,2 (00:00)-2,2 (00:00)0,0 l/m²74%1024,819,3 km/h (3 Bft) S19,3 km/h (3 Bft) S-SW (00:00)
Bad Krozingen233 m00:002,02,0 (06:45)2,0 (15:10)0,0 l/m²82%1024,527,7 km/h (4 Bft) S31,1 km/h (5 Bft) SW (23:45)
Bad Krozingen-Tunsel229 m00:001,81,8 (01:10)1,8 (15:00)0,0 l/m²81%1021,924,9 km/h (4 Bft) W-NW47,8 km/h (6 Bft) N-NO (23:40)
Bad Saulgau595 m00:00-1,3-1,3 (08:10)-1,3 (14:10)0,0 l/m²90%1022,10,0 km/h (0 Bft) W-SW20,9 km/h (4 Bft) W-SW (20:05)
Bad Saulgau, SFZ Kälberweide594 m00:02-1,3-1,3 (00:00)-1,3 (00:00)0,0 l/m²90%1024,27,9 km/h (2 Bft) SW7,9 km/h (2 Bft) SW (00:01)
Bad Schussenried572 m00:00-1,3-1,2 (00:00)-1,2 (00:00)0,0 l/m²92%1021,314,5 km/h (3 Bft) S-SW14,5 km/h (3 Bft) S (00:00)
Bergatreute615 m00:00-0,9-0,8 (00:00)-0,8 (00:00)0,0 l/m²93%1021,517,7 km/h (3 Bft) S-SW17,7 km/h (3 Bft) S-SW (00:00)
Biberach (Riss), Realschule553 m00:00-1,1-1,1 (00:00)-1,1 (00:00)0,0 l/m²89%1023,827,4 km/h (4 Bft) W27,4 km/h (4 Bft) W-NW (00:00)
Burgrieden523 m00:00-1,6-1,6 (00:00)-1,6 (00:00)0,0 l/m²86%1022,70,0 km/h (0 Bft) SW0,0 km/h (0 Bft) O-NO (00:00)
Burgrieden-Hochstetten510 m00:00-1,1-1,1 (06:50)-1,1 (01:00)0,0 l/m²90%1022,98,0 km/h (2 Bft) W-SW17,7 km/h (3 Bft) W-SW (19:30)
Ebersbach579 m00:00-1,3-1,3 (00:00)-1,3 (00:00)0,0 l/m²92%1024,011,3 km/h (2 Bft) S-SW11,3 km/h (2 Bft) S-SW (00:00)
Ebersbach-Boos605 m00:00-1,8-1,8 (00:00)-1,8 (00:00)0,0 l/m²93%1023,90,0 km/h (0 Bft) W-SW0,0 km/h (0 Bft) S-SW (00:00)
Ebersbach-Menzenweiler661 m00:00-2,1-2,1 (00:00)-2,1 (00:00)0,0 l/m²95%1024,022,5 km/h (4 Bft) S-SW22,5 km/h (4 Bft) S-SW (00:00)
Ehingen535 m00:00-1,7-1,7 (00:00)-1,7 (00:00)0,0 l/m²87%1022,315,0 km/h (3 Bft) O-NO15,0 km/h (3 Bft) O-NO (00:00)
Erlenmoos645 m00:00-1,3-1,3 (00:00)-1,3 (00:00)0,0 l/m²62%1023,022,5 km/h (4 Bft) S-SW22,5 km/h (4 Bft) S (00:00)
Ertingen569 m00:00-1,6-1,6 (00:00)-1,6 (00:00)0,0 l/m²92%1023,26,4 km/h (2 Bft) SW6,4 km/h (2 Bft) SO (00:00)
Günzburg443 m00:00-1,0-1,0 (00:00)-1,0 (00:00)0,0 l/m²85%1019,911,3 km/h (2 Bft) W-SW11,3 km/h (2 Bft) W (00:00)
Höchsten802 m00:00-3,3-3,3 (00:00)-3,3 (00:00)0,0 l/m²93%1021,719,3 km/h (3 Bft) NO19,3 km/h (3 Bft) NO (00:00)
Horgenzell618 m00:00-1,8-1,8 (00:00)-1,8 (00:00)0,0 l/m²92%1022,425,7 km/h (4 Bft) NW25,7 km/h (4 Bft) NW (00:00)
Hoßkirch632 m00:00-1,8-1,8 (00:00)-1,8 (00:00)0,0 l/m²92%1022,312,9 km/h (3 Bft) SW12,9 km/h (3 Bft) W (00:00)
Hüfingen682 m00:04-4,1-4,2 (00:00)-4,1 (00:00)0,0 l/m²96%1020,711,2 km/h (2 Bft) S-SW11,2 km/h (2 Bft) SW (00:00)
Immendingen750 m00:03-3,3- (-)-3,3 (01:00)0,0 l/m²94%1,10,0 km/h (0 Bft) S-SW0,0 km/h (0 Bft) N (01:00)
Isny, Am Dreifingerbach695 m00:00-2,2-2,2 (00:00)-2,2 (00:00)0,0 l/m²94%1023,30,0 km/h (0 Bft) S-SW0,0 km/h (0 Bft) S-SW (00:00)
Isny, Weidachweg706 m00:00-2,4-2,4 (00:00)-2,4 (00:00)0,0 l/m²89%1025,69,7 km/h (2 Bft) S-SW9,7 km/h (2 Bft) S (00:00)
Kappel-Grafenhausen163 m00:010,7- (-)0,7 (01:00)0,0 l/m²91%1021,619,4 km/h (3 Bft) S19,4 km/h (3 Bft) NO (01:00)
Kirchdorf an der Iller551 m00:02-1,6-1,7 (00:00)-1,6 (00:00)0,0 l/m²90%1024,013,0 km/h (3 Bft) SW11,2 km/h (2 Bft) W (00:00)
Kißlegg-Staibshof709 m00:00-2,2-2,2 (00:00)-2,2 (00:00)0,0 l/m²96%1023,70,0 km/h (0 Bft) O-NO0,0 km/h (0 Bft) NO (00:00)
Kressbronn398 m00:000,70,7 (00:00)0,7 (00:00)0,0 l/m²83%1023,00,0 km/h (0 Bft) O-SO0,0 km/h (0 Bft) O-SO (00:00)
Laupheim500 m00:00-1,2-1,2 (00:00)-1,2 (00:00)0,0 l/m²86%1022,120,9 km/h (4 Bft) SW20,9 km/h (4 Bft) SW (00:00)
Leutkirch-Heggelbach670 m00:00-1,9-1,9 (00:00)-1,9 (00:00)0,0 l/m²93%1022,319,3 km/h (3 Bft) S19,3 km/h (3 Bft) W-SW (00:00)
Lindau-Insel420 m00:000,60,6 (08:00)0,6 (12:05)0,0 l/m²85%1023,612,9 km/h (3 Bft) SO20,9 km/h (4 Bft) S-SW (21:15)
Lindau-Stadt412 m00:000,30,3 (08:15)0,3 (12:45)0,0 l/m²85%1023,78,0 km/h (2 Bft) O14,5 km/h (3 Bft) N (02:55)
Maselheim543 m00:00-1,5-1,5 (00:00)-1,5 (00:00)0,0 l/m²88%1023,024,1 km/h (4 Bft) SW24,1 km/h (4 Bft) W-SW (00:00)
Maselheim-Sulmingen548 m00:00-1,3-1,3 (07:30)-1,3 (13:40)0,0 l/m²90%1024,214,5 km/h (3 Bft) SW29,0 km/h (5 Bft) SW (21:05)
Mietingen-Baltringen528 m00:00-1,3-1,2 (00:00)-1,2 (00:00)0,0 l/m²86%1023,919,3 km/h (3 Bft) W19,3 km/h (3 Bft) W-SW (00:00)
Mittelbiberach577 m00:03-1,5-1,5 (00:00)-1,5 (00:00)0,0 l/m²86%1024,16,4 km/h (2 Bft) W14,4 km/h (3 Bft) SW (00:01)
Neuhausen am Rheinfall (CH)428 m00:03-0,7-0,7 (00:00)-0,7 (00:00)0,0 l/m²77%1022,50,0 km/h (0 Bft) SW0,0 km/h (0 Bft) SW (00:00)
Neukirch570 m00:00-0,7-0,7 (07:35)-0,7 (12:35)0,0 l/m²90%1023,89,7 km/h (2 Bft) S-SW19,3 km/h (3 Bft) S-SW (22:45)
Ochsenhausen, Birkenstraße583 m00:00-1,2-1,2 (07:15)-1,2 (14:00)0,0 l/m²85%1023,20,0 km/h (0 Bft) W0,0 km/h (0 Bft) N-NW (01:00)
Ochsenhausen, Unt. Wiesen575 m00:00-1,3-1,3 (00:00)-1,3 (00:00)0,0 l/m²89%1024,433,8 km/h (5 Bft) SW33,8 km/h (5 Bft) SW (00:00)
Ostrach619 m00:00-0,7-0,7 (00:00)-0,7 (00:00)0,0 l/m²92%1021,86,4 km/h (2 Bft) SW6,4 km/h (2 Bft) SW (00:00)
Ravensburg, Goethestraße428 m00:000,90,9 (00:00)0,9 (00:00)0,0 l/m²84%1022,712,9 km/h (3 Bft) S-SW12,9 km/h (3 Bft) S-SW (00:00)
Ravensburg, Springerstraße441 m00:001,21,2 (00:00)1,2 (00:00)0,0 l/m²71%1022,10,0 km/h (0 Bft) W-SW0,0 km/h (0 Bft) W-SW (00:00)
Ravensburg-Weißenau426 m00:010,7- (-)0,7 (01:00)0,0 l/m²83%1023,86,5 km/h (2 Bft) S-SW1,4 km/h (1 Bft) SW (00:00)
Ravensburg-Wernsreute511 m00:00-0,4-0,4 (06:30)-0,4 (11:20)0,0 l/m²88%1026,214,5 km/h (3 Bft) S-SW22,5 km/h (4 Bft) S (20:45)
Reichenbach an der Fils343 m00:00-3,2-3,2 (00:00)-3,2 (00:00)0,0 l/m²87%1023,91,6 km/h (1 Bft) O-SO1,6 km/h (1 Bft) O-SO (00:00)
Reinstetten559 m00:00-1,3-1,3 (00:00)-1,3 (00:00)0,0 l/m²90%1023,416,1 km/h (3 Bft) SW16,1 km/h (3 Bft) W-SW (00:00)
Riedlingen530 m00:00-1,4-1,4 (00:00)-1,4 (00:00)0,0 l/m²90%1023,314,5 km/h (3 Bft) SW14,5 km/h (3 Bft) W-SW (00:00)
Silbertal im Montafon (AT)884 m00:00-5,6-5,6 (00:00)-5,6 (00:00)0,0 l/m²84%1028,40,0 km/h (0 Bft) S-SW0,0 km/h (0 Bft) N (01:00)
Tettnang466 m00:000,2- (-)0,2 (01:00)0,0 l/m²85%1023,56,5 km/h (2 Bft) W-SW4,7 km/h (1 Bft) N-NO (01:00)
Tuttlingen, Möhringer-Vorstadt711 m00:00-2,8-2,8 (08:10)-2,8 (15:30)0,0 l/m²93%1023,46,4 km/h (2 Bft) S14,5 km/h (3 Bft) S (15:55)
Ummendorf547 m00:00-1,1-1,0 (00:00)-1,0 (00:00)0,0 l/m²80%1024,017,7 km/h (3 Bft) SW17,7 km/h (3 Bft) W-SW (00:00)
Ummendorf-Fischbach558 m00:00-1,2-1,2 (00:00)-1,2 (00:00)0,0 l/m²79%1023,817,7 km/h (3 Bft) W-SW17,7 km/h (3 Bft) SW (00:00)
Waldburg707 m00:00-1,8-1,7 (00:00)-1,7 (00:00)0,0 l/m²93%1023,19,7 km/h (2 Bft) N9,7 km/h (2 Bft) N (00:00)
Wangen, Hans-Schnitzer-Weg569 m00:00-- (-)3,7 (01:00)0,0 l/m²-1018,4- (0 Bft) N0,0 km/h (0 Bft) N (01:00)
Wangen, Südring548 m00:01-0,7-0,7 (00:00)-0,7 (00:00)0,0 l/m²90%1023,24,7 km/h (1 Bft) S4,7 km/h (1 Bft) SW (00:00)
Wangen-Leupolz612 m00:01-1,4-1,4 (00:00)-1,4 (00:00)0,0 l/m²90%1024,616,2 km/h (3 Bft) W-NW16,2 km/h (3 Bft) S-SW (00:00)
Warthausen-Birkenhard581 m00:03-- (-)-1,9 (01:00)0,0 l/m²-1023,011,9 km/h (3 Bft) S-SW10,1 km/h (2 Bft) SW (00:00)
Weingarten500 m00:000,30,3 (00:00)0,3 (00:00)0,0 l/m²85%1023,012,9 km/h (3 Bft) S-SW12,9 km/h (3 Bft) S (00:00)

niederschlagsdatenbank | info | login - erfassung

Sollten Sie Interesse haben, an der Niederschlagsdatenbank teilzunehmen, finden Sie > hier < weitere Informationen.
< 2019

Grafische Darstellung der Jahresniederschäge 2020    -    derzeit 129 Stationen

< 2019
 
wetterstationen
wetterstationen
- derzeit 94 Stationen
niederschlagsdatenbank
wetterstationen
- kartographische Darstellung
niederschlagsdatenbank
niederschlagsstationen
- derzeit 129 Stationen
niederschlagsdatenbank
niederschlagsstationen
- kartographische Darstellung
 
  treffpunkt & service
--- Anzeigen --------------------------------
zugriffe:
insgesamt: 50.280.020
aktueller monat: 10
heute: 10
momentan online: 5
 
 
monatshöchstwert: 703.589
vorheriger monat: 353.981
gestern: 16.591
tageshöchstwert: 60.571
 
wetterwarte süd
 
konradstraße 3
info@wetterwarte-sued.com
roland roth
 
88427 bad schussenried